KPPA/PPA METAR and TAF weather

Enter ICAO airport designator
Station Type Date Time Source
KPPA METAR 2019/08/24 06:35 UTC NOAA

KPPA 240635Z AUTO 15016KT 7SM RA SCT047 BKN060 OVC110 19/18 A3007 RMK AO2 LTG DSNT SE T01870176


Station Type Date Time Source
KPPA Decoded METAR 2019/08/24 06:35 UTC NOAA

Station name not available
Aug 24, 2019 - 02:35 AM EDT / 2019.08.24 0635 UTC
Wind: from the SSE (150 degrees) at 18 MPH (16 KT):0
Visibility: 7 mile(s):0
Sky conditions: overcast
Weather: rain; Lightning observed
Temperature: 65.7 F (18.7 C)
Dew Point: 63.7 F (17.6 C)
Relative Humidity: 93%
Pressure (altimeter): 30.07 in. Hg (1018 hPa)
ob: KPPA 240635Z AUTO 15016KT 7SM RA SCT047 BKN060 OVC110 19/18 A3007 RMK AO2 LTG DSNT SE T01870176
cycle: 6

Station Type Date Time Source
KPPA TAF UTC NOAA

Error!

Example: see airport list